Terminal Aerodrome Forecast
Issued by NWS

Home | Current Version | Previous Version | Text Only | Print | Product List | Glossary On
Versions: 1 2 3 4 5 6 7 8 9 10 11 12 13 14 15 16 17 18 19
000
FTUS46 KHNX 201003 AAA
TAFVIS
TAF AMD
KVIS 201003Z 2010/2106 14008KT P6SM -RA SCT050 OVC080
     FM201400 13015G21KT 6SM -RA BR OVC050
     FM202000 14011KT P6SM VCTS BKN050CB
     FM210000 27013KT 4SM BR OVC025
      TEMPO 2100/2103 4SM -SHRA OVC025=

USA.gov is the U.S. government's official web portal to all federal, state and local government web resources and services.